Time;durP1;ratioP1;P1;durP2;ratioP2;P2;SDS_P1;SDS_P2;PMS_P1;PMS_P2;Temp;Humidity;BMP_temperature;BMP_pressure;BME280_temperature;BME280_humidity;BME280_pressure;Samples;Min_cycle;Max_cycle;Signal;HPM_P1;HPM_P2
2023/11/13 00:00:49;;;;;;;27.05;14.55;;;4.50;99.90;;;;;;5074541;28;20122;-90
2023/11/13 00:03:15;;;;;;;25.25;13.95;;;4.50;99.90;;;;;;5071740;28;20127;-90
2023/11/13 00:05:40;;;;;;;24.55;13.85;;;4.60;99.90;;;;;;5073068;28;20070;-90
2023/11/13 00:08:06;;;;;;;26.42;14.18;;;4.50;99.90;;;;;;5071503;28;20025;-91
2023/11/13 00:10:32;;;;;;;25.50;13.75;;;4.50;99.90;;;;;;5075164;28;20032;-91
2023/11/13 00:12:59;;;;;;;26.70;13.85;;;4.50;99.90;;;;;;5074755;28;20142;-90
2023/11/13 00:15:25;;;;;;;24.27;13.52;;;4.50;99.90;;;;;;5070263;28;20036;-90
2023/11/13 00:17:51;;;;;;;21.95;13.23;;;4.60;99.90;;;;;;5074158;28;20494;-91
2023/11/13 00:20:17;;;;;;;29.55;13.93;;;4.60;99.90;;;;;;5074378;28;20050;-91
2023/11/13 00:22:43;;;;;;;23.30;14.23;;;4.60;99.90;;;;;;5074044;28;20472;-90
2023/11/13 00:25:09;;;;;;;26.17;15.20;;;4.60;99.90;;;;;;5071080;28;20037;-91
2023/11/13 00:27:35;;;;;;;30.33;15.70;;;4.60;99.90;;;;;;5059225;28;20025;-91
2023/11/13 00:30:00;;;;;;;31.25;15.07;;;4.70;99.90;;;;;;5077991;28;20020;-91
2023/11/13 00:32:26;;;;;;;25.08;13.38;;;4.70;99.90;;;;;;5075333;28;20472;-90
2023/11/13 00:34:51;;;;;;;25.67;14.77;;;4.70;99.90;;;;;;5074287;28;20029;-90
2023/11/13 00:37:17;;;;;;;28.92;15.13;;;4.70;99.90;;;;;;5075838;28;20082;-92
2023/11/13 00:39:42;;;;;;;28.60;14.77;;;4.80;99.90;;;;;;5076491;28;20025;-90
2023/11/13 00:42:11;;;;;;;24.08;14.10;;;4.80;99.90;;;;;;5076865;28;20028;-90
2023/11/13 00:44:36;;;;;;;26.05;14.65;;;4.80;99.90;;;;;;5072191;28;20028;-90
2023/11/13 00:47:03;;;;;;;28.23;13.35;;;4.80;99.90;;;;;;5084254;28;20077;-90
2023/11/13 00:49:29;;;;;;;25.30;13.13;;;4.90;99.90;;;;;;5084412;28;20028;-91
2023/11/13 00:51:55;;;;;;;25.08;13.02;;;5.00;99.90;;;;;;5077686;28;20028;-91
2023/11/13 00:54:21;;;;;;;23.15;13.32;;;5.00;99.90;;;;;;5073618;28;20368;-89
2023/11/13 00:56:47;;;;;;;23.23;13.75;;;5.10;99.90;;;;;;5072441;28;20035;-91
2023/11/13 00:59:12;;;;;;;25.23;14.00;;;5.10;99.90;;;;;;5076717;28;20036;-91
2023/11/13 01:01:38;;;;;;;25.55;13.38;;;5.20;99.90;;;;;;5073936;28;20017;-91
2023/11/13 01:04:04;;;;;;;24.05;13.38;;;5.20;99.90;;;;;;5077949;28;20032;-91
2023/11/13 01:06:30;;;;;;;25.10;13.35;;;5.20;99.90;;;;;;5075405;28;20399;-91
2023/11/13 01:08:56;;;;;;;22.23;12.93;;;5.20;99.90;;;;;;5076874;28;20107;-90
2023/11/13 01:11:22;;;;;;;20.75;12.18;;;5.20;99.90;;;;;;5073989;28;20031;-90
2023/11/13 01:13:48;;;;;;;21.13;12.57;;;5.30;99.90;;;;;;5090269;28;20032;-91
2023/11/13 01:16:14;;;;;;;24.45;12.32;;;5.30;99.90;;;;;;5073594;28;20552;-90
2023/11/13 01:18:40;;;;;;;21.25;11.43;;;5.30;99.90;;;;;;5080505;28;20111;-90
2023/11/13 01:21:05;;;;;;;22.38;12.07;;;5.30;99.90;;;;;;5071728;28;20024;-91
2023/11/13 01:23:31;;;;;;;19.60;11.07;;;5.30;99.90;;;;;;5073433;28;20123;-91
2023/11/13 01:25:56;;;;;;;21.63;13.18;;;5.30;99.90;;;;;;5069128;28;20480;-91
2023/11/13 01:28:22;;;;;;;23.27;11.50;;;5.30;99.90;;;;;;5089248;28;20028;-91
2023/11/13 01:30:48;;;;;;;18.85;11.15;;;5.40;99.90;;;;;;5063257;28;20021;-91
2023/11/13 01:33:13;;;;;;;22.42;12.68;;;5.40;99.90;;;;;;5076781;28;20080;-91
2023/11/13 01:35:39;;;;;;;21.88;11.32;;;5.40;99.90;;;;;;5072433;28;20399;-90
2023/11/13 01:38:05;;;;;;;17.83;11.63;;;5.40;99.90;;;;;;5070637;28;20035;-90
2023/11/13 01:40:31;;;;;;;19.00;11.18;;;5.40;99.90;;;;;;5075450;28;20024;-91
2023/11/13 01:42:57;;;;;;;18.88;10.93;;;5.40;99.90;;;;;;5076233;28;20027;-91
2023/11/13 01:45:22;;;;;;;18.10;11.15;;;5.50;99.90;;;;;;5076900;28;20036;-90
2023/11/13 01:47:49;;;;;;;18.88;10.50;;;5.50;99.90;;;;;;5074366;28;20032;-91
2023/11/13 01:50:15;;;;;;;17.60;11.52;;;5.50;99.90;;;;;;5075962;28;20419;-91
2023/11/13 01:52:42;;;;;;;23.70;11.57;;;5.50;99.90;;;;;;5076454;28;20020;-91
2023/11/13 01:55:11;;;;;;;21.50;10.82;;;5.50;99.90;;;;;;5075559;28;20032;-91
2023/11/13 01:57:37;;;;;;;19.38;10.48;;;5.50;99.90;;;;;;5074452;28;20093;-91
2023/11/13 02:00:05;;;;;;;17.40;10.73;;;5.60;99.90;;;;;;5077905;28;20046;-91
2023/11/13 02:02:31;;;;;;;21.75;10.55;;;5.60;99.90;;;;;;5069988;28;20040;-91
2023/11/13 02:04:57;;;;;;;19.25;10.48;;;5.60;99.90;;;;;;5080514;28;20139;-91
2023/11/13 02:07:23;;;;;;;20.30;11.27;;;5.60;99.90;;;;;;5087509;28;20052;-92
2023/11/13 02:09:49;;;;;;;19.13;10.73;;;5.60;99.90;;;;;;5088083;28;20028;-91
2023/11/13 02:12:15;;;;;;;20.50;10.75;;;5.60;99.90;;;;;;5076171;28;20062;-91
2023/11/13 02:14:41;;;;;;;20.08;11.38;;;5.60;99.90;;;;;;5074458;28;20028;-91
2023/11/13 02:17:11;;;;;;;19.05;11.30;;;5.60;99.90;;;;;;5075845;28;20392;-90
2023/11/13 02:19:36;;;;;;;19.90;11.20;;;5.70;99.90;;;;;;5095095;28;20028;-91
2023/11/13 02:22:04;;;;;;;20.77;12.02;;;5.70;99.90;;;;;;5077305;28;20744;-91
2023/11/13 02:24:30;;;;;;;17.65;10.52;;;5.70;99.90;;;;;;5076166;28;20039;-91
2023/11/13 02:26:56;;;;;;;19.67;11.57;;;5.60;99.90;;;;;;5073917;28;20024;-91
2023/11/13 02:29:21;;;;;;;16.85;10.00;;;5.60;99.90;;;;;;5075200;28;20031;-91
2023/11/13 02:31:55;;;;;;;22.88;11.32;;;5.60;99.90;;;;;;5075916;28;20020;-91
2023/11/13 02:34:22;;;;;;;15.82;10.38;;;5.60;99.90;;;;;;5072495;28;20048;-91
2023/11/13 02:36:49;;;;;;;22.20;11.45;;;5.60;99.90;;;;;;5081951;28;20032;-92
2023/11/13 02:39:22;;;;;;;16.80;11.10;;;5.60;99.90;;;;;;5092913;28;20111;-90
2023/11/13 02:41:48;;;;;;;;;;;5.60;99.90;;;;;;5092561;28;20638;-90
2023/11/13 02:44:14;;;;;;;22.85;11.27;;;5.60;99.90;;;;;;5075028;28;20018;-90
2023/11/13 02:46:40;;;;;;;24.92;12.10;;;5.60;99.90;;;;;;5073338;28;20024;-91
2023/11/13 02:49:06;;;;;;;21.73;11.40;;;5.60;99.90;;;;;;5075195;28;20027;-91
2023/11/13 02:51:32;;;;;;;21.08;11.73;;;5.60;99.90;;;;;;5072984;28;20107;-90
2023/11/13 02:53:58;;;;;;;16.88;10.70;;;5.60;99.90;;;;;;5074625;28;20114;-90
2023/11/13 02:56:23;;;;;;;21.27;11.70;;;5.60;99.90;;;;;;5076617;28;20024;-91
2023/11/13 02:58:49;;;;;;;19.05;10.68;;;5.60;99.90;;;;;;5071430;28;20036;-91
2023/11/13 03:01:15;;;;;;;21.02;10.75;;;5.60;99.90;;;;;;5066506;28;20081;-91
2023/11/13 03:03:42;;;;;;;17.40;10.15;;;5.60;99.90;;;;;;5074193;28;20055;-90
2023/11/13 03:06:08;;;;;;;18.63;10.75;;;5.60;99.90;;;;;;5075323;28;20081;-91
2023/11/13 03:08:34;;;;;;;19.20;10.75;;;5.70;99.90;;;;;;5068922;28;20024;-90
2023/11/13 03:10:59;;;;;;;18.77;11.45;;;5.70;99.90;;;;;;5070780;28;20024;-91
2023/11/13 03:13:25;;;;;;;20.45;10.65;;;5.70;99.90;;;;;;5091128;28;20032;-91
2023/11/13 03:15:50;;;;;;;18.60;10.80;;;5.70;99.90;;;;;;5074003;28;20539;-91
2023/11/13 03:18:16;;;;;;;19.17;10.07;;;5.70;99.90;;;;;;5071116;28;20025;-90
2023/11/13 03:20:45;;;;;;;19.35;10.95;;;5.80;99.90;;;;;;5069434;28;20384;-91
2023/11/13 03:23:12;;;;;;;19.35;10.90;;;5.70;99.90;;;;;;5072673;28;20024;-90
2023/11/13 03:25:38;;;;;;;17.60;10.57;;;5.80;99.90;;;;;;5086316;28;20106;-91
2023/11/13 03:28:03;;;;;;;19.27;10.90;;;5.70;99.90;;;;;;5081811;28;20419;-91
2023/11/13 03:30:31;;;;;;;16.33;9.88;;;5.80;99.90;;;;;;5084662;28;20024;-91
2023/11/13 03:32:58;;;;;;;15.40;9.80;;;5.80;99.90;;;;;;5091434;28;20031;-91
2023/11/13 03:35:23;;;;;;;19.95;11.55;;;5.80;99.90;;;;;;5070097;28;20024;-92
2023/11/13 03:37:49;;;;;;;17.25;10.48;;;5.80;99.90;;;;;;5091467;28;20046;-91
2023/11/13 03:40:14;;;;;;;18.48;10.00;;;5.80;99.90;;;;;;5074729;28;20024;-92
2023/11/13 03:42:40;;;;;;;20.60;10.43;;;5.90;99.90;;;;;;5090814;28;20510;-91
2023/11/13 03:45:07;;;;;;;24.95;10.98;;;5.90;99.90;;;;;;5073763;28;20032;-91
2023/11/13 03:47:32;;;;;;;20.15;11.02;;;5.90;99.90;;;;;;5071024;28;20021;-91
2023/11/13 03:49:58;;;;;;;16.75;10.57;;;6.00;99.90;;;;;;5091773;28;20028;-90
2023/11/13 03:52:24;;;;;;;18.48;11.13;;;6.00;99.90;;;;;;5069824;28;20024;-91
2023/11/13 03:54:50;;;;;;;15.82;9.75;;;6.00;99.90;;;;;;5073705;28;20032;-92
2023/11/13 03:57:15;;;;;;;19.08;10.50;;;6.00;99.90;;;;;;5091007;28;20039;-90
2023/11/13 03:59:41;;;;;;;18.02;10.68;;;6.00;99.90;;;;;;5086889;28;20058;-91
2023/11/13 04:02:07;;;;;;;18.63;10.02;;;6.10;99.90;;;;;;5084796;28;20036;-91
2023/11/13 04:04:32;;;;;;;19.17;9.95;;;6.10;99.90;;;;;;5092377;28;20039;-91
2023/11/13 04:06:58;;;;;;;17.85;10.23;;;6.10;99.90;;;;;;5078289;28;20472;-91
2023/11/13 04:09:24;;;;;;;19.45;10.95;;;6.10;99.90;;;;;;5078421;28;20123;-91
2023/11/13 04:11:50;;;;;;;19.17;11.40;;;6.10;99.90;;;;;;5073824;28;20020;-91
2023/11/13 04:14:16;;;;;;;20.52;11.70;;;6.10;99.90;;;;;;5066188;28;20029;-91
2023/11/13 04:16:42;;;;;;;21.65;11.80;;;6.10;99.90;;;;;;5072195;28;20042;-90
2023/11/13 04:19:07;;;;;;;23.00;11.63;;;6.10;99.90;;;;;;5075920;28;20495;-91
2023/11/13 04:21:33;;;;;;;24.30;11.93;;;6.10;99.90;;;;;;5064408;28;20070;-92
2023/11/13 04:24:01;;;;;;;22.13;11.80;;;6.10;99.90;;;;;;5077716;28;20064;-91
2023/11/13 04:26:27;;;;;;;22.58;12.57;;;6.10;99.90;;;;;;5076588;28;20039;-91
2023/11/13 04:28:53;;;;;;;20.50;11.93;;;6.10;99.90;;;;;;5077406;28;20024;-92
2023/11/13 04:31:20;;;;;;;17.92;11.60;;;6.10;99.90;;;;;;5072291;28;20048;-91
2023/11/13 04:33:48;;;;;;;20.17;12.15;;;6.10;99.90;;;;;;5076409;28;20031;-90
2023/11/13 04:36:13;;;;;;;22.08;12.35;;;6.10;99.90;;;;;;5077349;28;20039;-91
2023/11/13 04:38:40;;;;;;;19.83;11.20;;;6.10;99.90;;;;;;5072613;28;20028;-91
2023/11/13 04:41:06;;;;;;;21.25;11.73;;;6.10;99.90;;;;;;5077871;28;20024;-91
2023/11/13 04:43:32;;;;;;;19.30;12.38;;;6.10;99.90;;;;;;5073526;28;20037;-91
2023/11/13 04:45:58;;;;;;;22.33;12.38;;;6.10;99.90;;;;;;5070185;28;20020;-91
2023/11/13 04:48:24;;;;;;;23.45;12.73;;;6.20;99.90;;;;;;5080070;28;20427;-90
2023/11/13 04:50:53;;;;;;;24.52;13.05;;;6.10;99.90;;;;;;5077308;28;20066;-91
2023/11/13 04:53:18;;;;;;;21.45;12.18;;;6.10;99.90;;;;;;5075254;28;20430;-92
2023/11/13 04:55:44;;;;;;;25.35;13.50;;;6.10;99.90;;;;;;5077509;28;20027;-90
2023/11/13 04:58:09;;;;;;;26.88;14.07;;;6.10;99.90;;;;;;5075939;28;20036;-91
2023/11/13 05:00:35;;;;;;;25.63;14.05;;;6.10;99.90;;;;;;5070162;28;20980;-91
2023/11/13 05:03:00;;;;;;;24.88;14.45;;;6.10;99.90;;;;;;5073091;28;20044;-91
2023/11/13 05:05:26;;;;;;;31.45;14.80;;;6.10;99.90;;;;;;5076519;28;20113;-92
2023/11/13 05:07:52;;;;;;;26.15;12.38;;;6.20;99.90;;;;;;5077267;28;20114;-90
2023/11/13 05:10:18;;;;;;;30.50;15.70;;;6.10;99.90;;;;;;5077129;28;20548;-91
2023/11/13 05:12:44;;;;;;;24.35;13.25;;;6.20;99.90;;;;;;5095591;28;20051;-91
2023/11/13 05:15:13;;;;;;;37.92;15.90;;;6.20;99.90;;;;;;5075700;28;20052;-91
2023/11/13 05:17:39;;;;;;;29.88;15.60;;;6.20;99.90;;;;;;5090977;28;20024;-91
2023/11/13 05:20:08;;;;;;;30.92;15.45;;;6.20;99.90;;;;;;5075839;28;20051;-91
2023/11/13 05:22:33;;;;;;;33.90;15.98;;;6.20;99.90;;;;;;5060907;28;20055;-91
2023/11/13 05:24:59;;;;;;;36.40;15.35;;;6.20;99.90;;;;;;5077597;28;20055;-91
2023/11/13 05:27:25;;;;;;;28.60;15.80;;;6.20;99.90;;;;;;5074956;28;20024;-91
2023/11/13 05:29:52;;;;;;;32.05;15.77;;;6.30;99.90;;;;;;5073870;28;20094;-92
2023/11/13 05:32:17;;;;;;;34.03;16.30;;;6.30;99.90;;;;;;5077032;28;20028;-92
2023/11/13 05:34:43;;;;;;;33.53;16.60;;;6.30;99.90;;;;;;5077125;28;20027;-92
2023/11/13 05:37:09;;;;;;;41.88;17.65;;;6.30;99.90;;;;;;5073800;28;20024;-92
2023/11/13 05:39:35;;;;;;;40.50;17.25;;;6.30;99.90;;;;;;5070434;28;20028;-91
2023/11/13 05:42:01;;;;;;;34.53;15.00;;;6.30;99.90;;;;;;5092706;28;20020;-91
2023/11/13 05:44:26;;;;;;;36.63;16.67;;;6.30;99.90;;;;;;5066126;28;20032;-92
2023/11/13 05:46:52;;;;;;;34.05;15.50;;;6.40;99.90;;;;;;5069507;28;20083;-91
2023/11/13 05:49:18;;;;;;;43.15;18.27;;;6.40;99.90;;;;;;5086217;28;20024;-90
2023/11/13 05:51:43;;;;;;;30.15;16.73;;;6.40;99.90;;;;;;5076386;28;20119;-92
2023/11/13 05:54:09;;;;;;;27.60;14.77;;;6.40;99.90;;;;;;5094456;28;20038;-92
2023/11/13 05:56:34;;;;;;;29.73;15.80;;;6.50;99.90;;;;;;5074503;28;20077;-92
2023/11/13 05:59:00;;;;;;;43.00;17.67;;;6.50;99.90;;;;;;5077693;28;20032;-91
2023/11/13 06:01:31;;;;;;;51.60;17.65;;;6.50;99.90;;;;;;5073413;28;20021;-92
2023/11/13 06:03:59;;;;;;;35.95;19.20;;;6.50;99.90;;;;;;5089688;28;20132;-92
2023/11/13 06:06:25;;;;;;;33.92;17.15;;;6.50;99.90;;;;;;5076218;28;20084;-93
2023/11/13 06:08:50;;;;;;;46.88;19.17;;;6.50;99.90;;;;;;5083501;28;20051;-92
2023/11/13 06:11:17;;;;;;;40.70;17.92;;;6.50;99.90;;;;;;5087383;28;20020;-91
2023/11/13 06:13:42;;;;;;;41.63;18.17;;;6.50;99.90;;;;;;5094200;28;20221;-91
2023/11/13 06:16:09;;;;;;;39.65;16.98;;;6.60;99.90;;;;;;5094191;28;20028;-92
2023/11/13 06:18:45;;;;;;;42.13;18.33;;;6.60;99.90;;;;;;5075471;28;20024;-92
2023/11/13 06:21:11;;;;;;;41.20;17.85;;;6.60;99.90;;;;;;5070693;28;20073;-92
2023/11/13 06:23:36;;;;;;;46.70;19.17;;;6.60;99.90;;;;;;5063278;28;20029;-92
2023/11/13 06:26:05;;;;;;;58.28;20.65;;;6.60;99.90;;;;;;5069291;28;20070;-91
2023/11/13 06:28:30;;;;;;;43.13;18.65;;;6.70;99.90;;;;;;5071310;28;20056;-92
2023/11/13 06:30:56;;;;;;;39.85;17.30;;;6.70;99.90;;;;;;5069036;28;20052;-91
2023/11/13 06:33:22;;;;;;;48.30;18.52;;;6.70;99.90;;;;;;5061750;28;20063;-92
2023/11/13 06:35:48;;;;;;;63.08;20.58;;;6.70;99.90;;;;;;5078470;28;20024;-91
2023/11/13 06:38:15;;;;;;;68.78;20.27;;;6.80;99.90;;;;;;5078710;28;20032;-91
2023/11/13 06:40:41;;;;;;;47.47;17.15;;;6.80;99.90;;;;;;5095510;28;20114;-91
2023/11/13 06:43:07;;;;;;;54.92;18.17;;;6.80;99.90;;;;;;5077919;28;20111;-91
2023/11/13 06:45:33;;;;;;;42.92;16.95;;;6.80;99.90;;;;;;5078963;28;20024;-91
2023/11/13 06:47:59;;;;;;;48.55;17.33;;;6.90;99.90;;;;;;5076434;28;20026;-91
2023/11/13 06:50:24;;;;;;;66.30;20.73;;;6.90;99.90;;;;;;5072395;28;20089;-90
2023/11/13 06:52:50;;;;;;;82.03;20.63;;;6.90;99.90;;;;;;5071202;28;20028;-90
2023/11/13 06:55:16;;;;;;;61.70;19.40;;;6.90;99.90;;;;;;5075813;28;20034;-90
2023/11/13 06:57:42;;;;;;;49.53;18.13;;;7.00;99.90;;;;;;5060824;28;20043;-88
2023/11/13 07:00:11;;;;;;;58.88;18.65;;;7.00;99.90;;;;;;5069917;28;20032;-88
2023/11/13 07:02:40;;;;;;;48.95;18.70;;;7.10;99.90;;;;;;5080907;28;20055;-87
2023/11/13 07:05:07;;;;;;;52.72;19.25;;;7.10;99.90;;;;;;5072532;28;20036;-87
2023/11/13 07:07:33;;;;;;;47.58;18.60;;;7.10;99.90;;;;;;5071854;28;20368;-88
2023/11/13 07:10:01;;;;;;;50.25;19.30;;;7.20;99.90;;;;;;5069905;28;20026;-88
2023/11/13 07:12:29;;;;;;;45.42;18.33;;;7.20;99.90;;;;;;5070142;28;20017;-87
2023/11/13 07:14:55;;;;;;;44.10;16.80;;;7.20;99.90;;;;;;5072294;28;20024;-87
2023/11/13 07:17:21;;;;;;;44.15;18.55;;;7.30;99.90;;;;;;5072141;28;20024;-87
2023/11/13 07:19:47;;;;;;;40.40;17.08;;;7.30;99.90;;;;;;5072758;28;20504;-87
2023/11/13 07:22:13;;;;;;;43.15;18.92;;;7.30;99.90;;;;;;5074822;28;21072;-87
2023/11/13 07:24:39;;;;;;;57.08;18.85;;;7.30;99.90;;;;;;5070139;28;20079;-87
2023/11/13 07:27:05;;;;;;;42.83;17.35;;;7.40;99.90;;;;;;5074249;28;20035;-87
2023/11/13 07:29:31;;;;;;;43.00;17.23;;;7.40;99.90;;;;;;5064032;28;20043;-87
2023/11/13 07:31:57;;;;;;;34.88;16.42;;;7.40;99.90;;;;;;5085371;28;20095;-86
2023/11/13 07:34:23;;;;;;;39.63;17.33;;;7.50;99.90;;;;;;5062713;28;20033;-87
2023/11/13 07:36:48;;;;;;;41.55;16.85;;;7.50;99.90;;;;;;5069230;28;20043;-87
2023/11/13 07:39:15;;;;;;;39.58;16.63;;;7.50;99.90;;;;;;5070508;28;20027;-87
2023/11/13 07:41:40;;;;;;;30.90;15.13;;;7.60;99.90;;;;;;5078147;28;20047;-87
2023/11/13 07:44:06;;;;;;;37.10;16.23;;;7.70;99.90;;;;;;5069593;28;20082;-87
2023/11/13 07:46:33;;;;;;;34.47;16.15;;;7.80;99.90;;;;;;5075800;28;20497;-86
2023/11/13 07:48:59;;;;;;;36.75;16.63;;;7.80;99.90;;;;;;5061501;28;20051;-86
2023/11/13 07:51:26;;;;;;;39.22;15.82;;;7.90;99.90;;;;;;5078922;28;20062;-87
2023/11/13 07:53:51;;;;;;;39.75;19.00;;;8.00;99.90;;;;;;5059976;28;20052;-87
2023/11/13 07:56:19;;;;;;;37.03;15.88;;;8.00;99.90;;;;;;5074394;28;20048;-88
2023/11/13 07:58:45;;;;;;;38.85;17.85;;;8.10;99.90;;;;;;5067486;28;20408;-86
2023/11/13 08:01:11;;;;;;;38.03;17.15;;;8.20;99.90;;;;;;5068285;28;20020;-88
2023/11/13 08:03:37;;;;;;;36.15;17.23;;;8.20;99.90;;;;;;5086723;28;20427;-87
2023/11/13 08:06:03;;;;;;;61.17;19.38;;;8.30;99.90;;;;;;5070628;28;20081;-88
2023/11/13 08:08:29;;;;;;;39.40;17.50;;;8.40;99.90;;;;;;5073885;28;20056;-88
2023/11/13 08:10:56;;;;;;;39.33;18.25;;;8.50;99.90;;;;;;5072455;28;20071;-87
2023/11/13 08:13:24;;;;;;;39.53;17.35;;;8.60;99.90;;;;;;5062866;28;20123;-89
2023/11/13 08:15:51;;;;;;;37.53;17.17;;;8.60;99.90;;;;;;5081342;28;20052;-88
2023/11/13 08:18:18;;;;;;;38.25;18.63;;;8.70;99.90;;;;;;5070303;28;20024;-89
2023/11/13 08:20:46;;;;;;;41.40;17.65;;;8.70;99.90;;;;;;5089029;28;20028;-88
2023/11/13 08:23:16;;;;;;;36.20;16.40;;;8.90;99.90;;;;;;5074961;28;20118;-89
2023/11/13 08:25:43;;;;;;;41.33;16.75;;;8.90;99.90;;;;;;5084883;28;20016;-88
2023/11/13 08:28:11;;;;;;;40.13;17.08;;;9.00;99.90;;;;;;5075993;28;20024;-89
2023/11/13 08:30:37;;;;;;;32.42;14.75;;;9.00;99.90;;;;;;5084441;28;20400;-87
2023/11/13 08:33:03;;;;;;;43.13;16.75;;;9.10;99.90;;;;;;5074746;28;20020;-89
2023/11/13 08:35:32;;;;;;;32.22;14.75;;;9.20;99.90;;;;;;5069559;28;20032;-89
2023/11/13 08:37:59;;;;;;;31.42;14.32;;;9.20;99.90;;;;;;5078664;28;20081;-89
2023/11/13 08:40:25;;;;;;;37.42;15.07;;;9.30;99.90;;;;;;5074148;28;20028;-89
2023/11/13 08:42:55;;;;;;;36.13;15.43;;;9.40;99.90;;;;;;5074518;28;20020;-89
2023/11/13 08:45:21;;;;;;;32.97;14.00;;;9.50;99.90;;;;;;5067313;28;20487;-89
2023/11/13 08:47:49;;;;;;;38.20;13.63;;;9.50;99.90;;;;;;5067865;28;20034;-90
2023/11/13 08:50:15;;;;;;;29.23;11.38;;;9.60;99.90;;;;;;5056838;28;20058;-88
2023/11/13 08:52:42;;;;;;;25.70;10.18;;;9.70;99.90;;;;;;5069568;28;20032;-89
2023/11/13 08:55:12;;;;;;;24.23;10.70;;;9.80;99.90;;;;;;5081926;28;20127;-88
2023/11/13 08:57:41;;;;;;;22.35;9.18;;;9.80;99.90;;;;;;5083575;28;20024;-88
2023/11/13 09:00:08;;;;;;;22.05;8.80;;;9.90;99.90;;;;;;5090444;28;20024;-88
2023/11/13 09:02:35;;;;;;;23.13;7.80;;;10.00;99.90;;;;;;5069114;28;20047;-88
2023/11/13 09:05:04;;;;;;;19.40;7.85;;;10.00;99.90;;;;;;5077574;28;20043;-88
2023/11/13 09:07:31;;;;;;;23.75;7.93;;;10.00;99.90;;;;;;5066574;28;20024;-88
2023/11/13 09:09:56;;;;;;;23.67;7.20;;;10.10;99.90;;;;;;5082008;28;20024;-88
2023/11/13 09:12:22;;;;;;;22.73;6.80;;;10.10;99.90;;;;;;5097577;28;20032;-88
2023/11/13 09:14:47;;;;;;;19.27;6.93;;;10.20;99.90;;;;;;5095524;28;20020;-87
2023/11/13 09:17:13;;;;;;;14.85;5.80;;;10.20;99.90;;;;;;5077153;28;20042;-89
2023/11/13 09:19:42;;;;;;;13.80;5.72;;;10.20;99.90;;;;;;5078982;28;20028;-88
2023/11/13 09:22:12;;;;;;;18.13;5.10;;;10.30;99.90;;;;;;5088162;28;20747;-88
2023/11/13 09:24:38;;;;;;;16.90;4.97;;;10.30;99.90;;;;;;5093497;28;20480;-88
2023/11/13 09:27:09;;;;;;;22.42;5.45;;;10.30;99.90;;;;;;5088049;28;20089;-89
2023/11/13 09:29:36;;;;;;;17.50;5.25;;;10.30;99.90;;;;;;5072207;28;20039;-88
2023/11/13 09:32:01;;;;;;;15.57;4.78;;;10.30;99.90;;;;;;5070763;28;20028;-89
2023/11/13 09:34:27;;;;;;;17.08;5.63;;;10.40;99.90;;;;;;5078255;28;20480;-89
2023/11/13 09:36:53;;;;;;;15.82;5.30;;;10.30;99.90;;;;;;5076801;28;20070;-89
2023/11/13 09:39:18;;;;;;;16.98;5.35;;;10.40;99.90;;;;;;5079174;28;20035;-89
2023/11/13 09:41:48;;;;;;;13.13;5.43;;;10.40;99.90;;;;;;5068240;28;20036;-88
2023/11/13 09:44:18;;;;;;;22.08;6.55;;;10.40;99.90;;;;;;5068835;28;20047;-89
2023/11/13 09:46:44;;;;;;;19.23;6.35;;;10.40;99.90;;;;;;5090182;28;20030;-88
2023/11/13 09:49:11;;;;;;;13.45;5.35;;;10.40;99.90;;;;;;5077170;28;20031;-89
2023/11/13 09:51:38;;;;;;;14.98;4.50;;;10.50;99.90;;;;;;5073464;28;20024;-90
2023/11/13 09:54:04;;;;;;;18.95;5.00;;;10.50;99.90;;;;;;5073192;28;20025;-90
2023/11/13 09:56:30;;;;;;;14.68;4.15;;;10.50;99.90;;;;;;5068764;28;20120;-88
2023/11/13 09:58:57;;;;;;;16.75;4.55;;;10.50;99.90;;;;;;5073685;28;20036;-87
2023/11/13 10:01:23;;;;;;;10.40;3.50;;;10.50;99.90;;;;;;5081828;28;20040;-87
2023/11/13 10:03:48;;;;;;;7.43;2.45;;;10.50;99.90;;;;;;5088918;28;20109;-87
2023/11/13 10:06:15;;;;;;;11.52;2.90;;;10.50;99.90;;;;;;5088732;28;20365;-87
2023/11/13 10:08:42;;;;;;;10.95;2.60;;;10.40;99.90;;;;;;5089518;28;20028;-88
2023/11/13 10:11:09;;;;;;;8.82;2.53;;;10.40;99.90;;;;;;5072917;28;20024;-87
2023/11/13 10:13:34;;;;;;;10.85;2.60;;;10.40;99.90;;;;;;5077777;28;20455;-89
2023/11/13 10:16:18;;;;;;;7.53;1.92;;;10.40;99.90;;;;;;5070934;28;20028;-88
2023/11/13 10:18:45;;;;;;;7.15;2.67;;;10.40;99.90;;;;;;5072228;28;20024;-88
2023/11/13 10:21:20;;;;;;;5.00;1.88;;;10.30;99.90;;;;;;5089187;28;20053;-87
2023/11/13 10:23:45;;;;;;;5.35;2.30;;;10.30;99.90;;;;;;5076235;28;20032;-87
2023/11/13 10:26:14;;;;;;;6.70;1.90;;;10.30;99.90;;;;;;5072145;28;20035;-87
2023/11/13 10:28:40;;;;;;;6.75;2.25;;;10.30;99.90;;;;;;5086843;28;20027;-87
2023/11/13 10:31:12;;;;;;;6.78;1.63;;;10.30;99.90;;;;;;5072782;28;20036;-86
2023/11/13 10:33:39;;;;;;;10.07;4.70;;;10.30;99.90;;;;;;5072665;28;20032;-87
2023/11/13 10:36:13;;;;;;;19.17;8.27;;;10.30;99.90;;;;;;5075587;28;20111;-86
2023/11/13 10:38:51;;;;;;;22.52;10.18;;;10.30;99.90;;;;;;5089892;28;20137;-88
2023/11/13 10:41:21;;;;;;;13.82;6.70;;;10.20;99.90;;;;;;5076129;28;20024;-86
2023/11/13 10:43:47;;;;;;;12.80;5.65;;;10.30;99.90;;;;;;5078921;28;20060;-87
2023/11/13 10:46:30;;;;;;;12.00;8.05;;;10.30;99.90;;;;;;5081290;28;20051;-87
2023/11/13 10:48:57;;;;;;;9.15;4.38;;;10.30;99.90;;;;;;5072448;28;20028;-87
2023/11/13 10:51:25;;;;;;;6.47;3.30;;;10.30;99.90;;;;;;5083982;28;20586;-88
2023/11/13 10:53:52;;;;;;;5.90;1.90;;;10.30;99.90;;;;;;5072556;28;20022;-87
2023/11/13 10:56:19;;;;;;;5.18;2.78;;;10.30;99.90;;;;;;5077650;28;20471;-88
2023/11/13 10:58:44;;;;;;;5.53;2.05;;;10.30;99.90;;;;;;5087618;28;20549;-88
2023/11/13 11:01:16;;;;;;;7.15;2.60;;;10.30;99.90;;;;;;5065851;28;20031;-88
2023/11/13 11:03:50;;;;;;;4.70;2.58;;;10.30;99.90;;;;;;5065724;28;20044;-88
2023/11/13 11:06:20;;;;;;;5.18;2.60;;;10.30;99.90;;;;;;5091067;28;20484;-87
2023/11/13 11:08:46;;;;;;;6.70;2.80;;;10.30;99.90;;;;;;5073898;28;20036;-89
2023/11/13 11:11:13;;;;;;;13.43;6.38;;;10.40;99.90;;;;;;5071321;28;20380;-88
2023/11/13 11:13:45;;;;;;;9.77;4.38;;;10.40;99.90;;;;;;5073132;28;20031;-87
2023/11/13 11:16:23;;;;;;;8.63;3.80;;;10.40;99.90;;;;;;5090159;28;20408;-89
2023/11/13 11:19:12;;;;;;;10.30;4.32;;;10.50;99.90;;;;;;5070218;28;20169;-88
2023/11/13 11:22:00;;;;;;;6.63;3.55;;;10.50;99.90;;;;;;5067946;28;20399;-88
2023/11/13 11:24:44;;;;;;;8.25;3.63;;;10.60;99.90;;;;;;5086039;28;20075;-87
2023/11/13 11:27:10;;;;;;;11.43;4.22;;;10.60;99.90;;;;;;5084722;28;20016;-88
2023/11/13 11:29:36;;;;;;;6.95;3.55;;;10.60;99.90;;;;;;5092612;28;20043;-89
2023/11/13 11:32:19;;;;;;;9.43;4.07;;;10.60;99.90;;;;;;5072191;28;20028;-89
2023/11/13 11:34:49;;;;;;;11.32;4.70;;;10.70;99.90;;;;;;5067542;28;20024;-88
2023/11/13 11:37:16;;;;;;;9.50;4.80;;;10.70;99.90;;;;;;5064809;28;20050;-87
2023/11/13 11:39:51;;;;;;;12.13;5.60;;;10.80;99.90;;;;;;5072694;28;20032;-87
2023/11/13 11:42:22;;;;;;;17.30;5.80;;;10.80;99.90;;;;;;5075908;28;20044;-87
2023/11/13 11:44:53;;;;;;;11.45;5.57;;;10.80;99.90;;;;;;5063272;28;20474;-88
2023/11/13 11:47:28;;;;;;;12.50;6.20;;;10.90;99.90;;;;;;5073127;28;20480;-88
2023/11/13 11:49:58;;;;;;;12.60;5.82;;;10.90;99.90;;;;;;5082737;28;20021;-88
2023/11/13 11:52:51;;;;;;;11.52;5.88;;;11.00;99.90;;;;;;5087756;28;20031;-88
2023/11/13 11:55:22;;;;;;;14.48;6.47;;;11.10;99.90;;;;;;5082917;28;20089;-87
2023/11/13 11:57:49;;;;;;;13.05;5.75;;;11.20;99.90;;;;;;5071438;28;20029;-87
2023/11/13 12:00:22;;;;;;;18.33;5.70;;;11.30;99.90;;;;;;5082236;28;20094;-87
2023/11/13 12:02:53;;;;;;;15.50;5.60;;;11.40;99.90;;;;;;5065672;28;21494;-88
2023/11/13 12:05:19;;;;;;;12.77;5.43;;;11.60;99.90;;;;;;5066666;28;20032;-86
2023/11/13 12:07:46;;;;;;;23.13;6.05;;;11.60;99.90;;;;;;5070351;28;20054;-87
2023/11/13 12:10:12;;;;;;;15.82;6.20;;;11.70;99.90;;;;;;5087496;28;20028;-88
2023/11/13 12:12:41;;;;;;;14.32;5.13;;;11.80;99.90;;;;;;5083239;28;20276;-86
2023/11/13 12:15:08;;;;;;;13.60;5.15;;;11.90;99.90;;;;;;5088573;28;20024;-87
2023/11/13 12:17:39;;;;;;;19.42;5.63;;;12.00;99.90;;;;;;5080323;28;20046;-88
2023/11/13 12:20:07;;;;;;;19.60;6.72;;;12.00;99.90;;;;;;5069476;28;20488;-87
2023/11/13 12:22:40;;;;;;;14.13;4.63;;;12.10;99.90;;;;;;5068537;28;20115;-88
2023/11/13 12:25:08;;;;;;;18.13;4.97;;;12.20;99.90;;;;;;5079539;28;20382;-88
2023/11/13 12:27:38;;;;;;;17.25;4.78;;;12.20;99.90;;;;;;5069765;28;22446;-88
2023/11/13 12:30:22;;;;;;;15.35;4.93;;;12.30;99.90;;;;;;5071280;28;20020;-88
2023/11/13 12:32:48;;;;;;;12.70;4.30;;;12.40;99.90;;;;;;5064320;28;20020;-88
2023/11/13 12:35:20;;;;;;;15.85;4.88;;;12.40;99.90;;;;;;5097931;28;20020;-88
2023/11/13 12:37:52;;;;;;;17.65;5.10;;;12.50;99.90;;;;;;5074753;28;20038;-88